sensor_id;sensor_type;location;lat;lon;timestamp;P1;durP1;ratioP1;P2;durP2;ratioP2
72951;SDS011;61102;51.956;5.878;2022-12-11T00:01:25;32.72;;;7.65;;
72951;SDS011;61102;51.956;5.878;2022-12-11T00:03:51;29.88;;;7.25;;
72951;SDS011;61102;51.956;5.878;2022-12-11T00:06:19;17.92;;;4.57;;
72951;SDS011;61102;51.956;5.878;2022-12-11T00:08:46;25.27;;;5.97;;
72951;SDS011;61102;51.956;5.878;2022-12-11T00:11:15;30.05;;;7.05;;
72951;SDS011;61102;51.956;5.878;2022-12-11T00:13:42;24.52;;;4.90;;
72951;SDS011;61102;51.956;5.878;2022-12-11T00:16:08;19.92;;;4.65;;
72951;SDS011;61102;51.956;5.878;2022-12-11T00:18:34;26.75;;;6.97;;
72951;SDS011;61102;51.956;5.878;2022-12-11T00:21:01;20.02;;;5.50;;
72951;SDS011;61102;51.956;5.878;2022-12-11T00:23:29;21.70;;;5.35;;
72951;SDS011;61102;51.956;5.878;2022-12-11T00:25:55;19.45;;;5.18;;
72951;SDS011;61102;51.956;5.878;2022-12-11T00:28:22;24.05;;;5.60;;
72951;SDS011;61102;51.956;5.878;2022-12-11T00:30:48;27.88;;;6.25;;
72951;SDS011;61102;51.956;5.878;2022-12-11T00:33:14;18.48;;;3.95;;
72951;SDS011;61102;51.956;5.878;2022-12-11T00:35:43;22.63;;;5.13;;
72951;SDS011;61102;51.956;5.878;2022-12-11T00:38:14;27.77;;;6.43;;
72951;SDS011;61102;51.956;5.878;2022-12-11T00:40:42;20.83;;;5.63;;
72951;SDS011;61102;51.956;5.878;2022-12-11T00:43:08;19.05;;;4.63;;
72951;SDS011;61102;51.956;5.878;2022-12-11T00:45:35;18.02;;;4.18;;
72951;SDS011;61102;51.956;5.878;2022-12-11T00:48:06;16.42;;;3.60;;
72951;SDS011;61102;51.956;5.878;2022-12-11T00:50:33;21.75;;;4.63;;
72951;SDS011;61102;51.956;5.878;2022-12-11T00:53:00;16.35;;;3.63;;
72951;SDS011;61102;51.956;5.878;2022-12-11T00:55:27;13.38;;;3.53;;
72951;SDS011;61102;51.956;5.878;2022-12-11T00:57:54;16.80;;;3.60;;
72951;SDS011;61102;51.956;5.878;2022-12-11T01:00:21;14.77;;;3.50;;
72951;SDS011;61102;51.956;5.878;2022-12-11T01:02:48;27.75;;;6.93;;
72951;SDS011;61102;51.956;5.878;2022-12-11T01:05:15;18.50;;;4.45;;
72951;SDS011;61102;51.956;5.878;2022-12-11T01:07:41;21.00;;;5.40;;
72951;SDS011;61102;51.956;5.878;2022-12-11T01:10:08;19.83;;;5.15;;
72951;SDS011;61102;51.956;5.878;2022-12-11T01:12:52;23.73;;;5.93;;
72951;SDS011;61102;51.956;5.878;2022-12-11T01:15:24;26.75;;;6.40;;
72951;SDS011;61102;51.956;5.878;2022-12-11T01:17:52;20.27;;;5.03;;
72951;SDS011;61102;51.956;5.878;2022-12-11T01:20:19;20.20;;;3.85;;
72951;SDS011;61102;51.956;5.878;2022-12-11T01:22:46;22.33;;;4.97;;
72951;SDS011;61102;51.956;5.878;2022-12-11T01:25:12;19.48;;;5.15;;
72951;SDS011;61102;51.956;5.878;2022-12-11T01:27:38;25.30;;;5.57;;
72951;SDS011;61102;51.956;5.878;2022-12-11T01:30:05;15.63;;;3.50;;
72951;SDS011;61102;51.956;5.878;2022-12-11T01:32:33;25.27;;;5.75;;
72951;SDS011;61102;51.956;5.878;2022-12-11T01:35:01;19.35;;;5.70;;
72951;SDS011;61102;51.956;5.878;2022-12-11T01:37:29;21.27;;;5.63;;
72951;SDS011;61102;51.956;5.878;2022-12-11T01:39:55;21.70;;;5.13;;
72951;SDS011;61102;51.956;5.878;2022-12-11T01:42:21;24.63;;;5.88;;
72951;SDS011;61102;51.956;5.878;2022-12-11T01:47:15;22.13;;;4.95;;
72951;SDS011;61102;51.956;5.878;2022-12-11T01:49:41;23.05;;;5.53;;
72951;SDS011;61102;51.956;5.878;2022-12-11T01:52:10;27.20;;;6.07;;
72951;SDS011;61102;51.956;5.878;2022-12-11T01:54:44;19.15;;;3.38;;
72951;SDS011;61102;51.956;5.878;2022-12-11T01:57:10;15.10;;;3.50;;
72951;SDS011;61102;51.956;5.878;2022-12-11T01:59:39;25.02;;;4.80;;
72951;SDS011;61102;51.956;5.878;2022-12-11T02:02:17;16.20;;;3.47;;
72951;SDS011;61102;51.956;5.878;2022-12-11T02:04:47;22.45;;;5.07;;
72951;SDS011;61102;51.956;5.878;2022-12-11T02:07:16;18.10;;;4.38;;
72951;SDS011;61102;51.956;5.878;2022-12-11T02:09:42;21.38;;;4.43;;
72951;SDS011;61102;51.956;5.878;2022-12-11T02:14:58;23.48;;;4.93;;
72951;SDS011;61102;51.956;5.878;2022-12-11T02:20:23;20.67;;;5.10;;
72951;SDS011;61102;51.956;5.878;2022-12-11T02:28:30;27.00;;;6.68;;
72951;SDS011;61102;51.956;5.878;2022-12-11T02:31:11;17.70;;;3.92;;
72951;SDS011;61102;51.956;5.878;2022-12-11T02:33:43;16.58;;;3.53;;
72951;SDS011;61102;51.956;5.878;2022-12-11T02:36:15;18.90;;;4.20;;
72951;SDS011;61102;51.956;5.878;2022-12-11T02:38:43;18.42;;;3.75;;
72951;SDS011;61102;51.956;5.878;2022-12-11T02:41:15;22.15;;;4.40;;
72951;SDS011;61102;51.956;5.878;2022-12-11T02:43:44;21.42;;;5.45;;
72951;SDS011;61102;51.956;5.878;2022-12-11T02:46:12;25.25;;;5.97;;
72951;SDS011;61102;51.956;5.878;2022-12-11T02:48:39;20.00;;;4.10;;
72951;SDS011;61102;51.956;5.878;2022-12-11T02:51:07;19.65;;;4.38;;
72951;SDS011;61102;51.956;5.878;2022-12-11T02:53:36;17.30;;;4.10;;
72951;SDS011;61102;51.956;5.878;2022-12-11T02:56:07;28.02;;;5.80;;
72951;SDS011;61102;51.956;5.878;2022-12-11T02:58:38;28.05;;;6.78;;
72951;SDS011;61102;51.956;5.878;2022-12-11T03:01:11;22.00;;;5.68;;
72951;SDS011;61102;51.956;5.878;2022-12-11T03:03:37;27.67;;;6.55;;
72951;SDS011;61102;51.956;5.878;2022-12-11T03:06:03;20.63;;;4.15;;
72951;SDS011;61102;51.956;5.878;2022-12-11T03:08:29;22.10;;;5.13;;
72951;SDS011;61102;51.956;5.878;2022-12-11T03:10:56;20.02;;;3.67;;
72951;SDS011;61102;51.956;5.878;2022-12-11T03:13:23;19.63;;;4.25;;
72951;SDS011;61102;51.956;5.878;2022-12-11T03:16:35;19.05;;;4.38;;
72951;SDS011;61102;51.956;5.878;2022-12-11T03:21:54;21.92;;;5.57;;
72951;SDS011;61102;51.956;5.878;2022-12-11T03:24:38;20.20;;;3.80;;
72951;SDS011;61102;51.956;5.878;2022-12-11T03:27:20;27.52;;;5.75;;
72951;SDS011;61102;51.956;5.878;2022-12-11T03:30:14;26.75;;;6.38;;
72951;SDS011;61102;51.956;5.878;2022-12-11T03:32:52;24.10;;;4.40;;
72951;SDS011;61102;51.956;5.878;2022-12-11T03:35:42;27.30;;;6.13;;
72951;SDS011;61102;51.956;5.878;2022-12-11T03:41:03;22.00;;;4.72;;
72951;SDS011;61102;51.956;5.878;2022-12-11T03:43:32;25.77;;;5.82;;
72951;SDS011;61102;51.956;5.878;2022-12-11T03:45:59;30.65;;;6.57;;
72951;SDS011;61102;51.956;5.878;2022-12-11T03:48:27;19.30;;;4.82;;
72951;SDS011;61102;51.956;5.878;2022-12-11T03:50:58;19.73;;;4.43;;
72951;SDS011;61102;51.956;5.878;2022-12-11T03:53:26;19.20;;;3.67;;
72951;SDS011;61102;51.956;5.878;2022-12-11T03:55:53;26.45;;;5.28;;
72951;SDS011;61102;51.956;5.878;2022-12-11T03:58:22;20.55;;;4.90;;
72951;SDS011;61102;51.956;5.878;2022-12-11T04:00:49;25.27;;;4.70;;
72951;SDS011;61102;51.956;5.878;2022-12-11T04:03:15;17.45;;;3.72;;
72951;SDS011;61102;51.956;5.878;2022-12-11T04:05:47;18.08;;;3.97;;
72951;SDS011;61102;51.956;5.878;2022-12-11T04:08:15;17.90;;;3.58;;
72951;SDS011;61102;51.956;5.878;2022-12-11T04:10:42;16.98;;;3.83;;
72951;SDS011;61102;51.956;5.878;2022-12-11T04:13:08;26.33;;;5.22;;
72951;SDS011;61102;51.956;5.878;2022-12-11T04:15:35;24.77;;;5.15;;
72951;SDS011;61102;51.956;5.878;2022-12-11T04:18:02;19.67;;;3.88;;
72951;SDS011;61102;51.956;5.878;2022-12-11T04:20:48;28.52;;;7.25;;
72951;SDS011;61102;51.956;5.878;2022-12-11T04:23:32;27.58;;;5.72;;
72951;SDS011;61102;51.956;5.878;2022-12-11T04:26:18;29.40;;;5.85;;
72951;SDS011;61102;51.956;5.878;2022-12-11T04:31:12;20.25;;;3.90;;
72951;SDS011;61102;51.956;5.878;2022-12-11T04:33:45;24.40;;;4.93;;
72951;SDS011;61102;51.956;5.878;2022-12-11T04:36:12;27.90;;;6.07;;
72951;SDS011;61102;51.956;5.878;2022-12-11T04:38:38;26.52;;;5.85;;
72951;SDS011;61102;51.956;5.878;2022-12-11T04:41:06;25.58;;;5.32;;
72951;SDS011;61102;51.956;5.878;2022-12-11T04:43:34;18.65;;;4.47;;
72951;SDS011;61102;51.956;5.878;2022-12-11T04:46:01;17.13;;;4.30;;
72951;SDS011;61102;51.956;5.878;2022-12-11T04:48:36;17.58;;;4.85;;
72951;SDS011;61102;51.956;5.878;2022-12-11T04:51:03;19.23;;;4.22;;
72951;SDS011;61102;51.956;5.878;2022-12-11T04:53:30;20.13;;;5.13;;
72951;SDS011;61102;51.956;5.878;2022-12-11T04:55:56;17.52;;;4.25;;
72951;SDS011;61102;51.956;5.878;2022-12-11T04:58:23;21.30;;;4.20;;
72951;SDS011;61102;51.956;5.878;2022-12-11T05:00:50;18.20;;;4.47;;
72951;SDS011;61102;51.956;5.878;2022-12-11T05:03:17;18.10;;;4.40;;
72951;SDS011;61102;51.956;5.878;2022-12-11T05:05:50;17.10;;;4.20;;
72951;SDS011;61102;51.956;5.878;2022-12-11T05:08:17;15.55;;;3.92;;
72951;SDS011;61102;51.956;5.878;2022-12-11T05:10:53;18.67;;;5.47;;
72951;SDS011;61102;51.956;5.878;2022-12-11T05:13:23;24.42;;;5.90;;
72951;SDS011;61102;51.956;5.878;2022-12-11T05:15:49;20.20;;;5.07;;
72951;SDS011;61102;51.956;5.878;2022-12-11T05:18:15;16.85;;;4.70;;
72951;SDS011;61102;51.956;5.878;2022-12-11T05:20:41;25.80;;;7.50;;
72951;SDS011;61102;51.956;5.878;2022-12-11T05:23:07;20.70;;;5.65;;
72951;SDS011;61102;51.956;5.878;2022-12-11T05:25:33;13.68;;;4.10;;
72951;SDS011;61102;51.956;5.878;2022-12-11T05:28:00;21.45;;;4.50;;
72951;SDS011;61102;51.956;5.878;2022-12-11T05:30:26;16.58;;;4.15;;
72951;SDS011;61102;51.956;5.878;2022-12-11T05:32:52;17.95;;;5.15;;
72951;SDS011;61102;51.956;5.878;2022-12-11T05:35:18;15.10;;;3.88;;
72951;SDS011;61102;51.956;5.878;2022-12-11T05:37:44;19.80;;;5.47;;
72951;SDS011;61102;51.956;5.878;2022-12-11T05:40:10;14.85;;;4.32;;
72951;SDS011;61102;51.956;5.878;2022-12-11T05:42:37;17.92;;;4.90;;
72951;SDS011;61102;51.956;5.878;2022-12-11T05:45:03;24.35;;;6.40;;
72951;SDS011;61102;51.956;5.878;2022-12-11T05:47:30;17.40;;;5.07;;
72951;SDS011;61102;51.956;5.878;2022-12-11T05:49:56;19.08;;;5.10;;
72951;SDS011;61102;51.956;5.878;2022-12-11T05:52:22;25.52;;;5.25;;
72951;SDS011;61102;51.956;5.878;2022-12-11T05:54:48;18.08;;;5.05;;
72951;SDS011;61102;51.956;5.878;2022-12-11T05:57:15;15.43;;;4.03;;
72951;SDS011;61102;51.956;5.878;2022-12-11T05:59:41;17.45;;;4.97;;
72951;SDS011;61102;51.956;5.878;2022-12-11T06:02:07;15.20;;;4.00;;
72951;SDS011;61102;51.956;5.878;2022-12-11T06:04:33;12.02;;;3.83;;
72951;SDS011;61102;51.956;5.878;2022-12-11T06:06:59;17.02;;;3.95;;
72951;SDS011;61102;51.956;5.878;2022-12-11T06:09:25;20.77;;;5.55;;
72951;SDS011;61102;51.956;5.878;2022-12-11T06:11:51;20.50;;;4.78;;
72951;SDS011;61102;51.956;5.878;2022-12-11T06:14:17;17.23;;;5.22;;
72951;SDS011;61102;51.956;5.878;2022-12-11T06:16:43;15.82;;;4.47;;
72951;SDS011;61102;51.956;5.878;2022-12-11T06:19:13;15.27;;;3.92;;
72951;SDS011;61102;51.956;5.878;2022-12-11T06:21:40;14.45;;;4.10;;
72951;SDS011;61102;51.956;5.878;2022-12-11T06:24:06;17.65;;;5.00;;
72951;SDS011;61102;51.956;5.878;2022-12-11T06:26:32;17.27;;;5.20;;
72951;SDS011;61102;51.956;5.878;2022-12-11T06:28:58;19.20;;;6.53;;
72951;SDS011;61102;51.956;5.878;2022-12-11T06:31:24;19.92;;;5.78;;
72951;SDS011;61102;51.956;5.878;2022-12-11T06:33:50;14.20;;;4.13;;
72951;SDS011;61102;51.956;5.878;2022-12-11T06:36:17;23.27;;;7.50;;
72951;SDS011;61102;51.956;5.878;2022-12-11T06:38:45;18.35;;;6.43;;
72951;SDS011;61102;51.956;5.878;2022-12-11T06:41:12;12.93;;;4.15;;
72951;SDS011;61102;51.956;5.878;2022-12-11T06:43:39;16.45;;;4.30;;
72951;SDS011;61102;51.956;5.878;2022-12-11T06:46:07;19.13;;;5.68;;
72951;SDS011;61102;51.956;5.878;2022-12-11T06:48:38;14.18;;;4.60;;
72951;SDS011;61102;51.956;5.878;2022-12-11T06:51:05;14.10;;;4.20;;
72951;SDS011;61102;51.956;5.878;2022-12-11T06:53:32;13.25;;;3.83;;
72951;SDS011;61102;51.956;5.878;2022-12-11T06:56:03;13.18;;;4.03;;
72951;SDS011;61102;51.956;5.878;2022-12-11T06:58:32;12.82;;;3.92;;
72951;SDS011;61102;51.956;5.878;2022-12-11T07:00:59;14.60;;;5.30;;
72951;SDS011;61102;51.956;5.878;2022-12-11T07:03:25;15.13;;;4.80;;
72951;SDS011;61102;51.956;5.878;2022-12-11T07:05:51;18.60;;;5.97;;
72951;SDS011;61102;51.956;5.878;2022-12-11T07:08:17;17.27;;;4.95;;
72951;SDS011;61102;51.956;5.878;2022-12-11T07:10:43;15.80;;;5.07;;
72951;SDS011;61102;51.956;5.878;2022-12-11T07:13:09;12.35;;;4.07;;
72951;SDS011;61102;51.956;5.878;2022-12-11T07:15:35;16.25;;;5.35;;
72951;SDS011;61102;51.956;5.878;2022-12-11T07:18:01;13.75;;;4.80;;
72951;SDS011;61102;51.956;5.878;2022-12-11T07:20:27;15.13;;;4.53;;
72951;SDS011;61102;51.956;5.878;2022-12-11T07:22:53;12.60;;;4.25;;
72951;SDS011;61102;51.956;5.878;2022-12-11T07:25:19;12.13;;;3.70;;
72951;SDS011;61102;51.956;5.878;2022-12-11T07:27:45;10.02;;;3.63;;
72951;SDS011;61102;51.956;5.878;2022-12-11T07:30:12;14.82;;;5.53;;
72951;SDS011;61102;51.956;5.878;2022-12-11T07:32:38;11.13;;;3.58;;
72951;SDS011;61102;51.956;5.878;2022-12-11T07:35:04;15.70;;;5.10;;
72951;SDS011;61102;51.956;5.878;2022-12-11T07:37:31;12.88;;;4.07;;
72951;SDS011;61102;51.956;5.878;2022-12-11T07:39:57;12.73;;;4.50;;
72951;SDS011;61102;51.956;5.878;2022-12-11T07:42:23;14.65;;;4.43;;
72951;SDS011;61102;51.956;5.878;2022-12-11T07:44:49;15.10;;;4.68;;
72951;SDS011;61102;51.956;5.878;2022-12-11T07:47:15;15.82;;;5.25;;
72951;SDS011;61102;51.956;5.878;2022-12-11T07:49:41;14.43;;;4.50;;
72951;SDS011;61102;51.956;5.878;2022-12-11T07:52:07;13.35;;;4.75;;
72951;SDS011;61102;51.956;5.878;2022-12-11T07:54:34;16.90;;;5.25;;
72951;SDS011;61102;51.956;5.878;2022-12-11T07:57:00;11.48;;;4.38;;
72951;SDS011;61102;51.956;5.878;2022-12-11T07:59:26;10.45;;;3.72;;
72951;SDS011;61102;51.956;5.878;2022-12-11T08:01:52;14.40;;;4.57;;
72951;SDS011;61102;51.956;5.878;2022-12-11T08:04:18;11.32;;;4.13;;
72951;SDS011;61102;51.956;5.878;2022-12-11T08:06:51;10.25;;;3.13;;
72951;SDS011;61102;51.956;5.878;2022-12-11T08:09:17;10.55;;;3.63;;
72951;SDS011;61102;51.956;5.878;2022-12-11T08:11:47;10.38;;;3.63;;
72951;SDS011;61102;51.956;5.878;2022-12-11T08:14:15;12.00;;;4.13;;
72951;SDS011;61102;51.956;5.878;2022-12-11T08:16:41;11.18;;;3.22;;
72951;SDS011;61102;51.956;5.878;2022-12-11T08:19:11;10.32;;;2.95;;
72951;SDS011;61102;51.956;5.878;2022-12-11T08:21:38;10.00;;;3.15;;
72951;SDS011;61102;51.956;5.878;2022-12-11T08:24:05;13.30;;;4.13;;
72951;SDS011;61102;51.956;5.878;2022-12-11T08:26:31;10.63;;;3.55;;
72951;SDS011;61102;51.956;5.878;2022-12-11T08:28:57;12.45;;;4.07;;
72951;SDS011;61102;51.956;5.878;2022-12-11T08:31:25;9.63;;;3.40;;
72951;SDS011;61102;51.956;5.878;2022-12-11T08:33:51;10.80;;;3.10;;
72951;SDS011;61102;51.956;5.878;2022-12-11T08:36:19;8.02;;;2.45;;
72951;SDS011;61102;51.956;5.878;2022-12-11T08:38:48;9.07;;;2.35;;
72951;SDS011;61102;51.956;5.878;2022-12-11T08:41:16;9.15;;;2.78;;
72951;SDS011;61102;51.956;5.878;2022-12-11T08:43:48;10.25;;;3.50;;
72951;SDS011;61102;51.956;5.878;2022-12-11T08:46:17;12.40;;;4.75;;
72951;SDS011;61102;51.956;5.878;2022-12-11T08:48:43;12.02;;;4.00;;
72951;SDS011;61102;51.956;5.878;2022-12-11T08:51:10;9.70;;;3.03;;
72951;SDS011;61102;51.956;5.878;2022-12-11T08:53:38;11.10;;;3.40;;
72951;SDS011;61102;51.956;5.878;2022-12-11T08:56:11;12.15;;;3.80;;
72951;SDS011;61102;51.956;5.878;2022-12-11T08:58:39;9.63;;;2.92;;
72951;SDS011;61102;51.956;5.878;2022-12-11T09:01:09;10.45;;;3.30;;
72951;SDS011;61102;51.956;5.878;2022-12-11T09:03:43;10.73;;;3.70;;
72951;SDS011;61102;51.956;5.878;2022-12-11T09:06:10;10.07;;;3.53;;
72951;SDS011;61102;51.956;5.878;2022-12-11T09:08:38;8.25;;;2.55;;
72951;SDS011;61102;51.956;5.878;2022-12-11T09:11:06;10.30;;;3.20;;
72951;SDS011;61102;51.956;5.878;2022-12-11T09:13:34;14.40;;;4.55;;
72951;SDS011;61102;51.956;5.878;2022-12-11T09:16:02;12.32;;;4.70;;
72951;SDS011;61102;51.956;5.878;2022-12-11T09:18:29;13.98;;;5.10;;
72951;SDS011;61102;51.956;5.878;2022-12-11T09:21:03;11.77;;;3.53;;
72951;SDS011;61102;51.956;5.878;2022-12-11T09:23:31;10.18;;;3.38;;
72951;SDS011;61102;51.956;5.878;2022-12-11T09:25:57;11.48;;;3.50;;
72951;SDS011;61102;51.956;5.878;2022-12-11T09:28:24;8.82;;;2.83;;
72951;SDS011;61102;51.956;5.878;2022-12-11T09:30:50;8.80;;;2.60;;
72951;SDS011;61102;51.956;5.878;2022-12-11T09:33:17;9.95;;;3.20;;
72951;SDS011;61102;51.956;5.878;2022-12-11T09:35:43;12.73;;;4.45;;
72951;SDS011;61102;51.956;5.878;2022-12-11T09:38:09;14.93;;;5.25;;
72951;SDS011;61102;51.956;5.878;2022-12-11T09:40:41;11.68;;;4.22;;
72951;SDS011;61102;51.956;5.878;2022-12-11T09:48:21;11.57;;;3.67;;
72951;SDS011;61102;51.956;5.878;2022-12-11T09:50:50;10.40;;;3.45;;
72951;SDS011;61102;51.956;5.878;2022-12-11T09:53:25;13.48;;;4.32;;
72951;SDS011;61102;51.956;5.878;2022-12-11T10:06:52;12.30;;;4.18;;
72951;SDS011;61102;51.956;5.878;2022-12-11T10:09:30;11.10;;;3.72;;
72951;SDS011;61102;51.956;5.878;2022-12-11T10:12:05;11.13;;;3.30;;
72951;SDS011;61102;51.956;5.878;2022-12-11T10:15:24;13.13;;;4.70;;
72951;SDS011;61102;51.956;5.878;2022-12-11T10:17:41;14.10;;;4.47;;
72951;SDS011;61102;51.956;5.878;2022-12-11T10:22:38;16.42;;;6.35;;
72951;SDS011;61102;51.956;5.878;2022-12-11T10:25:06;15.73;;;5.63;;
72951;SDS011;61102;51.956;5.878;2022-12-11T10:35:41;16.20;;;6.63;;
72951;SDS011;61102;51.956;5.878;2022-12-11T10:38:19;16.55;;;6.30;;
72951;SDS011;61102;51.956;5.878;2022-12-11T10:40:58;14.15;;;5.65;;
72951;SDS011;61102;51.956;5.878;2022-12-11T10:43:31;16.27;;;5.90;;
72951;SDS011;61102;51.956;5.878;2022-12-11T10:45:58;13.15;;;4.80;;
72951;SDS011;61102;51.956;5.878;2022-12-11T10:48:25;13.23;;;4.82;;
72951;SDS011;61102;51.956;5.878;2022-12-11T10:50:55;15.75;;;6.10;;
72951;SDS011;61102;51.956;5.878;2022-12-11T10:53:24;17.42;;;6.85;;
72951;SDS011;61102;51.956;5.878;2022-12-11T10:55:51;17.50;;;6.63;;
72951;SDS011;61102;51.956;5.878;2022-12-11T10:58:20;18.27;;;6.50;;
72951;SDS011;61102;51.956;5.878;2022-12-11T11:03:29;16.65;;;7.25;;
72951;SDS011;61102;51.956;5.878;2022-12-11T11:06:05;19.17;;;7.55;;
72951;SDS011;61102;51.956;5.878;2022-12-11T11:08:41;17.75;;;7.53;;
72951;SDS011;61102;51.956;5.878;2022-12-11T11:11:30;14.80;;;6.38;;
72951;SDS011;61102;51.956;5.878;2022-12-11T11:14:05;17.95;;;7.20;;
72951;SDS011;61102;51.956;5.878;2022-12-11T11:16:37;16.70;;;6.47;;
72951;SDS011;61102;51.956;5.878;2022-12-11T11:19:04;16.10;;;6.68;;
72951;SDS011;61102;51.956;5.878;2022-12-11T11:21:33;19.38;;;8.38;;
72951;SDS011;61102;51.956;5.878;2022-12-11T11:23:59;20.90;;;8.45;;
72951;SDS011;61102;51.956;5.878;2022-12-11T11:26:25;17.83;;;6.88;;
72951;SDS011;61102;51.956;5.878;2022-12-11T11:28:55;16.98;;;6.55;;
72951;SDS011;61102;51.956;5.878;2022-12-11T11:31:31;14.13;;;5.88;;
72951;SDS011;61102;51.956;5.878;2022-12-11T11:34:00;14.57;;;5.35;;
72951;SDS011;61102;51.956;5.878;2022-12-11T11:36:32;15.68;;;6.20;;
72951;SDS011;61102;51.956;5.878;2022-12-11T11:44:31;17.70;;;7.55;;
72951;SDS011;61102;51.956;5.878;2022-12-11T11:47:08;17.45;;;7.10;;
72951;SDS011;61102;51.956;5.878;2022-12-11T11:49:52;17.77;;;6.47;;
72951;SDS011;61102;51.956;5.878;2022-12-11T11:52:23;18.80;;;6.93;;
72951;SDS011;61102;51.956;5.878;2022-12-11T11:55:08;18.38;;;7.50;;
72951;SDS011;61102;51.956;5.878;2022-12-11T12:00:26;17.30;;;6.47;;
72951;SDS011;61102;51.956;5.878;2022-12-11T12:02:55;22.35;;;7.75;;
72951;SDS011;61102;51.956;5.878;2022-12-11T12:13:58;14.30;;;5.72;;
72951;SDS011;61102;51.956;5.878;2022-12-11T12:25:48;18.90;;;7.03;;
72951;SDS011;61102;51.956;5.878;2022-12-11T12:28:44;16.67;;;6.70;;
72951;SDS011;61102;51.956;5.878;2022-12-11T12:42:06;18.80;;;7.25;;
72951;SDS011;61102;51.956;5.878;2022-12-11T12:44:46;20.92;;;6.72;;
72951;SDS011;61102;51.956;5.878;2022-12-11T12:47:31;15.32;;;5.90;;
72951;SDS011;61102;51.956;5.878;2022-12-11T12:50:00;16.95;;;6.18;;
72951;SDS011;61102;51.956;5.878;2022-12-11T12:52:31;16.33;;;6.18;;
72951;SDS011;61102;51.956;5.878;2022-12-11T12:55:03;14.55;;;5.47;;
72951;SDS011;61102;51.956;5.878;2022-12-11T12:57:38;14.98;;;5.82;;
72951;SDS011;61102;51.956;5.878;2022-12-11T13:00:08;20.02;;;8.18;;
72951;SDS011;61102;51.956;5.878;2022-12-11T13:02:47;17.70;;;6.65;;
72951;SDS011;61102;51.956;5.878;2022-12-11T13:05:22;17.65;;;7.60;;
72951;SDS011;61102;51.956;5.878;2022-12-11T13:07:52;17.10;;;6.47;;
72951;SDS011;61102;51.956;5.878;2022-12-11T13:12:47;15.10;;;6.07;;
72951;SDS011;61102;51.956;5.878;2022-12-11T13:26:39;19.00;;;7.03;;
72951;SDS011;61102;51.956;5.878;2022-12-11T13:29:25;18.10;;;6.90;;
72951;SDS011;61102;51.956;5.878;2022-12-11T13:31:56;19.17;;;7.50;;
72951;SDS011;61102;51.956;5.878;2022-12-11T13:34:56;16.83;;;6.30;;
72951;SDS011;61102;51.956;5.878;2022-12-11T13:37:37;17.92;;;6.18;;
72951;SDS011;61102;51.956;5.878;2022-12-11T13:40:17;16.10;;;6.15;;
72951;SDS011;61102;51.956;5.878;2022-12-11T13:42:50;17.42;;;6.30;;
72951;SDS011;61102;51.956;5.878;2022-12-11T13:45:45;13.85;;;5.25;;
72951;SDS011;61102;51.956;5.878;2022-12-11T13:48:16;14.25;;;4.78;;
72951;SDS011;61102;51.956;5.878;2022-12-11T13:50:46;13.98;;;5.40;;
72951;SDS011;61102;51.956;5.878;2022-12-11T13:53:15;16.02;;;6.35;;
72951;SDS011;61102;51.956;5.878;2022-12-11T13:55:42;13.25;;;4.88;;
72951;SDS011;61102;51.956;5.878;2022-12-11T13:58:21;14.40;;;5.47;;
72951;SDS011;61102;51.956;5.878;2022-12-11T14:01:06;15.23;;;6.20;;
72951;SDS011;61102;51.956;5.878;2022-12-11T14:03:42;15.90;;;5.68;;
72951;SDS011;61102;51.956;5.878;2022-12-11T14:06:20;17.35;;;6.10;;
72951;SDS011;61102;51.956;5.878;2022-12-11T14:08:47;13.48;;;5.10;;
72951;SDS011;61102;51.956;5.878;2022-12-11T14:11:22;14.60;;;5.13;;
72951;SDS011;61102;51.956;5.878;2022-12-11T14:13:52;15.05;;;6.00;;
72951;SDS011;61102;51.956;5.878;2022-12-11T14:16:22;13.18;;;4.38;;
72951;SDS011;61102;51.956;5.878;2022-12-11T14:18:50;14.50;;;5.10;;
72951;SDS011;61102;51.956;5.878;2022-12-11T14:21:23;11.77;;;3.63;;
72951;SDS011;61102;51.956;5.878;2022-12-11T14:23:51;14.40;;;4.90;;
72951;SDS011;61102;51.956;5.878;2022-12-11T14:29:05;19.13;;;8.35;;
72951;SDS011;61102;51.956;5.878;2022-12-11T14:31:41;15.48;;;6.18;;
72951;SDS011;61102;51.956;5.878;2022-12-11T14:34:17;15.65;;;5.13;;
72951;SDS011;61102;51.956;5.878;2022-12-11T14:36:54;12.60;;;4.03;;
72951;SDS011;61102;51.956;5.878;2022-12-11T14:39:32;12.93;;;4.82;;
72951;SDS011;61102;51.956;5.878;2022-12-11T14:44:40;9.75;;;3.03;;
72951;SDS011;61102;51.956;5.878;2022-12-11T14:47:28;11.10;;;3.83;;
72951;SDS011;61102;51.956;5.878;2022-12-11T14:50:02;12.43;;;4.05;;
72951;SDS011;61102;51.956;5.878;2022-12-11T14:52:41;12.98;;;3.63;;
72951;SDS011;61102;51.956;5.878;2022-12-11T14:55:14;15.20;;;5.47;;
72951;SDS011;61102;51.956;5.878;2022-12-11T14:57:53;15.82;;;4.80;;
72951;SDS011;61102;51.956;5.878;2022-12-11T15:00:26;13.77;;;4.78;;
72951;SDS011;61102;51.956;5.878;2022-12-11T15:03:04;14.13;;;4.97;;
72951;SDS011;61102;51.956;5.878;2022-12-11T15:05:52;18.20;;;7.25;;
72951;SDS011;61102;51.956;5.878;2022-12-11T15:08:23;20.73;;;7.60;;
72951;SDS011;61102;51.956;5.878;2022-12-11T15:13:32;21.17;;;7.85;;
72951;SDS011;61102;51.956;5.878;2022-12-11T15:16:00;14.60;;;5.25;;
72951;SDS011;61102;51.956;5.878;2022-12-11T15:18:31;14.00;;;4.10;;
72951;SDS011;61102;51.956;5.878;2022-12-11T15:21:02;16.77;;;5.80;;
72951;SDS011;61102;51.956;5.878;2022-12-11T15:23:31;14.35;;;5.25;;
72951;SDS011;61102;51.956;5.878;2022-12-11T15:26:02;14.00;;;5.78;;
72951;SDS011;61102;51.956;5.878;2022-12-11T15:28:33;14.77;;;5.40;;
72951;SDS011;61102;51.956;5.878;2022-12-11T15:31:02;10.13;;;3.58;;
72951;SDS011;61102;51.956;5.878;2022-12-11T15:33:49;14.48;;;5.32;;
72951;SDS011;61102;51.956;5.878;2022-12-11T15:36:23;15.18;;;6.35;;
72951;SDS011;61102;51.956;5.878;2022-12-11T15:38:55;12.60;;;4.63;;
72951;SDS011;61102;51.956;5.878;2022-12-11T15:41:22;12.18;;;4.57;;
72951;SDS011;61102;51.956;5.878;2022-12-11T15:43:52;11.65;;;3.83;;
72951;SDS011;61102;51.956;5.878;2022-12-11T15:46:20;16.80;;;6.35;;
72951;SDS011;61102;51.956;5.878;2022-12-11T15:48:46;14.30;;;5.00;;
72951;SDS011;61102;51.956;5.878;2022-12-11T15:51:13;15.07;;;5.72;;
72951;SDS011;61102;51.956;5.878;2022-12-11T15:53:40;11.35;;;4.63;;
72951;SDS011;61102;51.956;5.878;2022-12-11T15:56:08;16.35;;;5.72;;
72951;SDS011;61102;51.956;5.878;2022-12-11T15:58:39;15.85;;;6.00;;
72951;SDS011;61102;51.956;5.878;2022-12-11T16:01:06;13.55;;;4.82;;
72951;SDS011;61102;51.956;5.878;2022-12-11T16:03:32;15.00;;;5.80;;
72951;SDS011;61102;51.956;5.878;2022-12-11T16:06:17;12.38;;;5.10;;
72951;SDS011;61102;51.956;5.878;2022-12-11T16:08:44;12.70;;;4.75;;
72951;SDS011;61102;51.956;5.878;2022-12-11T16:11:11;17.17;;;6.82;;
72951;SDS011;61102;51.956;5.878;2022-12-11T16:13:38;15.88;;;5.95;;
72951;SDS011;61102;51.956;5.878;2022-12-11T16:16:04;12.70;;;4.85;;
72951;SDS011;61102;51.956;5.878;2022-12-11T16:18:30;16.15;;;5.40;;
72951;SDS011;61102;51.956;5.878;2022-12-11T16:20:56;12.90;;;4.90;;
72951;SDS011;61102;51.956;5.878;2022-12-11T16:23:28;11.70;;;4.13;;
72951;SDS011;61102;51.956;5.878;2022-12-11T16:25:54;11.93;;;3.75;;
72951;SDS011;61102;51.956;5.878;2022-12-11T16:28:20;11.82;;;4.43;;
72951;SDS011;61102;51.956;5.878;2022-12-11T16:30:46;12.10;;;4.13;;
72951;SDS011;61102;51.956;5.878;2022-12-11T16:33:12;13.27;;;4.72;;
72951;SDS011;61102;51.956;5.878;2022-12-11T16:35:39;12.38;;;4.57;;
72951;SDS011;61102;51.956;5.878;2022-12-11T16:38:07;13.25;;;4.30;;
72951;SDS011;61102;51.956;5.878;2022-12-11T16:40:34;13.00;;;5.47;;
72951;SDS011;61102;51.956;5.878;2022-12-11T16:43:02;11.80;;;4.47;;